Time;durP1;ratioP1;P1;durP2;ratioP2;P2;SDS_P1;SDS_P2;PMS_P1;PMS_P2;Temp;Humidity;BMP_temperature;BMP_pressure;BME280_temperature;BME280_humidity;BME280_pressure;Samples;Min_cycle;Max_cycle;Signal;HPM_P1;HPM_P2
2023/12/31 00:00:56;;;;;;;;;;;7.00;99.90;;;;;;5066697;28;19935;-77
2023/12/31 00:03:22;;;;;;;;;;;7.00;99.90;;;;;;5062606;28;19940;-76
2023/12/31 00:05:49;;;;;;;;;;;7.00;99.90;;;;;;5063144;28;19973;-78
2023/12/31 00:08:17;;;;;;;;;;;7.00;99.90;;;;;;5060765;28;19932;-77
2023/12/31 00:10:44;;;;;;;;;;;7.00;99.90;;;;;;5067157;28;20542;-77
2023/12/31 00:13:10;;;;;;;;;;;6.90;99.90;;;;;;5065030;28;20640;-77
2023/12/31 00:15:37;;;;;;;;;;;6.90;99.90;;;;;;5065597;28;20398;-75
2023/12/31 00:18:03;;;;;;;;;;;6.90;99.90;;;;;;5064192;28;20406;-77
2023/12/31 00:20:30;;;;;;;;;;;6.90;99.90;;;;;;5062518;28;19939;-78
2023/12/31 00:22:57;;;;;;;;;;;6.90;99.90;;;;;;5060236;28;19929;-76
2023/12/31 00:25:24;;;;;;;;;;;6.80;99.90;;;;;;5060693;28;20193;-77
2023/12/31 00:27:51;;;;;;;;;;;6.90;99.90;;;;;;5063087;28;20314;-77
2023/12/31 00:30:17;;;;;;;;;;;6.80;99.90;;;;;;5063861;28;19951;-76
2023/12/31 00:32:44;;;;;;;;;;;6.80;99.90;;;;;;5066786;28;19933;-78
2023/12/31 00:35:10;;;;;;;;;;;6.80;99.90;;;;;;5063011;28;19936;-78
2023/12/31 00:37:37;;;;;;;;;;;6.80;99.90;;;;;;5069600;28;19928;-77
2023/12/31 00:40:04;;;;;;;;;;;6.80;99.90;;;;;;5068696;28;19942;-76
2023/12/31 00:42:32;;;;;;;;;;;6.70;99.90;;;;;;5069228;28;19928;-77
2023/12/31 00:44:58;;;;;;;;;;;6.70;99.90;;;;;;5068585;28;19928;-77
2023/12/31 00:47:25;;;;;;;;;;;6.70;99.90;;;;;;5065647;28;20379;-78
2023/12/31 00:49:51;;;;;;;;;;;6.70;99.90;;;;;;5064407;28;19928;-77
2023/12/31 00:52:18;;;;;;;;;;;6.70;99.90;;;;;;5064759;28;19933;-77
2023/12/31 00:54:46;;;;;;;;;;;6.60;99.90;;;;;;5066164;28;19928;-77
2023/12/31 00:57:12;;;;;;;;;;;6.70;99.90;;;;;;5069502;28;19946;-77
2023/12/31 00:59:40;;;;;;;;;;;6.60;99.90;;;;;;5067974;28;20615;-78
2023/12/31 01:02:06;;;;;;;;;;;6.60;99.90;;;;;;5066317;28;19933;-76
2023/12/31 01:04:33;;;;;;;;;;;6.60;99.90;;;;;;5070197;28;20519;-78
2023/12/31 01:06:59;;;;;;;;;;;6.60;99.90;;;;;;5064765;28;19940;-76
2023/12/31 01:09:26;;;;;;;;;;;6.60;99.90;;;;;;5066920;28;19939;-79
2023/12/31 01:11:52;;;;;;;;;;;6.50;99.90;;;;;;5072670;28;20321;-76
2023/12/31 01:14:19;;;;;;;;;;;6.60;99.90;;;;;;5070991;28;19990;-76
2023/12/31 01:16:47;;;;;;;;;;;6.50;99.90;;;;;;5074291;28;19928;-77
2023/12/31 01:19:16;;;;;;;;;;;6.50;99.90;;;;;;5063744;28;19932;-78
2023/12/31 01:21:42;;;;;;;;;;;6.50;99.90;;;;;;5074594;28;19928;-78
2023/12/31 01:24:09;;;;;;;;;;;6.50;99.90;;;;;;5067774;28;19928;-76
2023/12/31 01:26:35;;;;;;;;;;;6.50;99.90;;;;;;5069037;28;19935;-77
2023/12/31 01:29:02;;;;;;;;;;;6.40;99.90;;;;;;5073947;28;19928;-78
2023/12/31 01:31:28;;;;;;;;;;;6.40;99.90;;;;;;5064418;28;19929;-77
2023/12/31 01:33:56;;;;;;;;;;;6.40;99.90;;;;;;5066989;28;19928;-79
2023/12/31 01:36:24;;;;;;;;;;;6.40;99.90;;;;;;5062835;28;20654;-77
2023/12/31 01:38:51;;;;;;;;;;;6.40;99.90;;;;;;5064134;28;20021;-77
2023/12/31 01:41:18;;;;;;;;;;;6.40;99.90;;;;;;5064145;28;19928;-77
2023/12/31 01:43:44;;;;;;;;;;;6.30;99.90;;;;;;5069722;28;19928;-78
2023/12/31 01:46:11;;;;;;;;;;;6.30;99.90;;;;;;5064824;28;19982;-77
2023/12/31 01:48:38;;;;;;;;;;;6.30;99.90;;;;;;5065303;28;19971;-76
2023/12/31 01:51:07;;;;;;;;;;;6.30;99.90;;;;;;5068578;28;19974;-78
2023/12/31 01:53:33;;;;;;;;;;;6.30;99.90;;;;;;5063192;28;20027;-77
2023/12/31 01:56:00;;;;;;;;;;;6.20;99.90;;;;;;5066391;28;19932;-76
2023/12/31 01:58:26;;;;;;;;;;;6.30;99.90;;;;;;5070386;28;19939;-77
2023/12/31 02:00:53;;;;;;;;;;;6.20;99.90;;;;;;5070073;28;19928;-78
2023/12/31 02:03:19;;;;;;;;;;;6.20;99.90;;;;;;5065785;28;19985;-78
2023/12/31 02:05:47;;;;;;;;;;;6.20;99.90;;;;;;5066094;28;19990;-76
2023/12/31 02:08:15;;;;;;;;;;;6.20;99.90;;;;;;5065466;28;19932;-78
2023/12/31 02:10:41;;;;;;;;;;;6.20;99.90;;;;;;5064351;28;20381;-76
2023/12/31 02:13:08;;;;;;;;;;;6.20;99.90;;;;;;5063825;28;19936;-77
2023/12/31 02:15:35;;;;;;;;;;;6.10;99.90;;;;;;5059140;28;20400;-79
2023/12/31 02:18:03;;;;;;;;;;;6.10;99.90;;;;;;5060700;28;19983;-76
2023/12/31 02:20:29;;;;;;;;;;;6.10;99.90;;;;;;5064585;28;25166;-77
2023/12/31 02:22:56;;;;;;;;;;;6.10;99.90;;;;;;5061384;28;20333;-77
2023/12/31 02:25:25;;;;;;;;;;;6.10;99.90;;;;;;5065924;28;25076;-76
2023/12/31 02:27:53;;;;;;;;;;;6.10;99.90;;;;;;5065359;28;20741;-78
2023/12/31 02:30:21;;;;;;;;;;;6.10;99.90;;;;;;5062529;28;25083;-76
2023/12/31 02:32:47;;;;;;;;;;;6.10;99.90;;;;;;5065205;28;20521;-79
2023/12/31 02:35:14;;;;;;;;;;;6.00;99.90;;;;;;5062914;28;20879;-77
2023/12/31 02:37:40;;;;;;;;;;;6.10;99.90;;;;;;5064881;28;20133;-77
2023/12/31 02:40:08;;;;;;;;;;;6.00;99.90;;;;;;5064866;28;25074;-77
2023/12/31 02:42:34;;;;;;;;;;;6.00;99.90;;;;;;5065111;28;19994;-78
2023/12/31 02:45:02;;;;;;;;;;;6.00;99.90;;;;;;5066002;28;25077;-77
2023/12/31 02:47:28;;;;;;;;;;;6.00;99.90;;;;;;5062258;28;19985;-77
2023/12/31 02:49:55;;;;;;;;;;;6.00;99.90;;;;;;5067727;28;25104;-78
2023/12/31 02:52:21;;;;;;;;;;;6.00;99.90;;;;;;5065892;28;20578;-76
2023/12/31 02:54:48;;;;;;;;;;;6.00;99.90;;;;;;5065238;28;20009;-77
2023/12/31 02:57:15;;;;;;;;;;;6.00;99.90;;;;;;5063806;28;25079;-76
2023/12/31 02:59:41;;;;;;;;;;;6.00;99.90;;;;;;5072454;28;19979;-77
2023/12/31 03:02:09;;;;;;;;;;;6.00;99.90;;;;;;5063381;28;20016;-77
2023/12/31 03:04:39;;;;;;;;;;;6.00;99.90;;;;;;5065879;28;20184;-78
2023/12/31 03:07:05;;;;;;;;;;;6.00;99.90;;;;;;5056333;28;20948;-78
2023/12/31 03:09:32;;;;;;;;;;;6.00;99.90;;;;;;5062280;28;19925;-76
2023/12/31 03:11:58;;;;;;;;;;;6.00;99.90;;;;;;5067780;28;19957;-77
2023/12/31 03:14:25;;;;;;;;;;;6.00;99.90;;;;;;5061520;28;19979;-77
2023/12/31 03:16:51;;;;;;;;;;;6.00;99.90;;;;;;5066237;28;25053;-76
2023/12/31 03:19:19;;;;;;;;;;;6.00;99.90;;;;;;5062081;28;19997;-78
2023/12/31 03:21:46;;;;;;;;;;;6.00;99.90;;;;;;5064206;28;25138;-77
2023/12/31 03:24:12;;;;;;;;;;;6.00;99.90;;;;;;5063447;28;19986;-78
2023/12/31 03:26:39;;;;;;;;;;;6.00;99.90;;;;;;5063281;28;25085;-77
2023/12/31 03:29:06;;;;;;;;;;;6.00;99.90;;;;;;5058089;28;19989;-77
2023/12/31 03:31:32;;;;;;;;;;;6.00;99.90;;;;;;5062576;28;20008;-77
2023/12/31 03:33:59;;;;;;;;;;;6.00;99.90;;;;;;5066864;28;25068;-77
2023/12/31 03:36:27;;;;;;;;;;;6.00;99.90;;;;;;5060289;28;19980;-76
2023/12/31 03:38:54;;;;;;;;;;;6.00;99.90;;;;;;5065360;28;19986;-76
2023/12/31 03:41:21;;;;;;;;;;;6.00;99.90;;;;;;5060684;28;25060;-77
2023/12/31 03:43:47;;;;;;;;;;;6.00;99.90;;;;;;5063349;28;19983;-77
2023/12/31 03:46:14;;;;;;;;;;;6.00;99.90;;;;;;5060235;28;20152;-77
2023/12/31 03:48:40;;;;;;;;;;;6.00;99.90;;;;;;5064074;28;20110;-76
2023/12/31 03:51:07;;;;;;;;;;;6.00;99.90;;;;;;5061141;28;20164;-77
2023/12/31 03:53:34;;;;;;;;;;;5.90;99.90;;;;;;5060191;28;20388;-77
2023/12/31 03:56:01;;;;;;;;;;;6.00;99.90;;;;;;5061978;28;25069;-76
2023/12/31 03:58:28;;;;;;;;;;;6.00;99.90;;;;;;5069017;28;19994;-77
2023/12/31 04:00:54;;;;;;;;;;;6.00;99.90;;;;;;5058939;28;20117;-77
2023/12/31 04:03:21;;;;;;;;;;;5.90;99.90;;;;;;5060604;28;20141;-78
2023/12/31 04:05:47;;;;;;;;;;;6.00;99.90;;;;;;5063195;28;25059;-76
2023/12/31 04:08:14;;;;;;;;;;;5.90;99.90;;;;;;5062712;28;20037;-78
2023/12/31 04:10:42;;;;;;;;;;;5.90;99.90;;;;;;5067414;28;20188;-78
2023/12/31 04:13:08;;;;;;;;;;;5.90;99.90;;;;;;5068160;28;20598;-76
2023/12/31 04:15:35;;;;;;;;;;;6.00;99.90;;;;;;5066196;28;20170;-77
2023/12/31 04:18:02;;;;;;;;;;;5.90;99.90;;;;;;5066556;28;19983;-77
2023/12/31 04:20:29;;;;;;;;;;;5.90;99.90;;;;;;5067892;28;25069;-76
2023/12/31 04:22:55;;;;;;;;;;;5.90;99.90;;;;;;5066204;28;20005;-77
2023/12/31 04:25:22;;;;;;;;;;;5.90;99.90;;;;;;5064404;28;20133;-77
2023/12/31 04:27:49;;;;;;;;;;;5.90;99.90;;;;;;5067827;28;20566;-76
2023/12/31 04:30:18;;;;;;;;;;;5.90;99.90;;;;;;5066310;28;20337;-77
2023/12/31 04:32:45;;;;;;;;;;;5.90;99.90;;;;;;5067901;28;25066;-76
2023/12/31 04:35:11;;;;;;;;;;;5.90;99.90;;;;;;5067365;28;19993;-77
2023/12/31 04:37:38;;;;;;;;;;;5.90;99.90;;;;;;5064853;28;25168;-77
2023/12/31 04:40:05;;;;;;;;;;;5.90;99.90;;;;;;5069298;28;19979;-77
2023/12/31 04:42:31;;;;;;;;;;;5.90;99.90;;;;;;5065225;28;25063;-76
2023/12/31 04:45:04;;;;;;;;;;;5.90;99.90;;;;;;5068048;28;20483;-78
2023/12/31 04:47:31;;;;;;;;;;;5.90;99.90;;;;;;5064333;28;25167;-77
2023/12/31 04:49:57;;;;;;;;;;;5.90;99.90;;;;;;5066810;28;20550;-76
2023/12/31 04:52:24;;;;;;;;;;;5.90;99.90;;;;;;5067010;28;25078;-76
2023/12/31 04:54:51;;;;;;;;;;;5.90;99.90;;;;;;5065739;28;19990;-77
2023/12/31 04:57:17;;;;;;;;;;;5.90;99.90;;;;;;5064972;28;20622;-77
2023/12/31 04:59:44;;;;;;;;;;;5.90;99.90;;;;;;5064978;28;20169;-77
2023/12/31 05:02:12;;;;;;;;;;;5.90;99.90;;;;;;5060418;28;20156;-76
2023/12/31 05:04:40;;;;;;;;;;;5.90;99.90;;;;;;5067352;28;19988;-76
2023/12/31 05:07:08;;;;;;;;;;;5.80;99.90;;;;;;5064337;28;20139;-76
2023/12/31 05:09:35;;;;;;;;;;;5.90;99.90;;;;;;5060714;28;25064;-77
2023/12/31 05:12:02;;;;;;;;;;;5.90;99.90;;;;;;5064778;28;20577;-77
2023/12/31 05:14:28;;;;;;;;;;;5.90;99.90;;;;;;5065724;28;20128;-77
2023/12/31 05:16:55;;;;;;;;;;;5.90;99.90;;;;;;5062707;28;19995;-76
2023/12/31 05:19:22;;;;;;;;;;;5.80;99.90;;;;;;5062504;28;20849;-77
2023/12/31 05:21:49;;;;;;;;;;;5.90;99.90;;;;;;5063908;28;20160;-76
2023/12/31 05:24:15;;;;;;;;;;;5.90;99.90;;;;;;5065653;28;19994;-77
2023/12/31 05:26:42;;;;;;;;;;;5.90;99.90;;;;;;5064863;28;20387;-77
2023/12/31 05:29:09;;;;;;;;;;;5.90;99.90;;;;;;5065959;28;25055;-77
2023/12/31 05:31:36;;;;;;;;;;;5.90;99.90;;;;;;5063566;28;19979;-77
2023/12/31 05:34:03;;;;;;;;;;;5.80;99.90;;;;;;5064643;28;25133;-76
2023/12/31 05:36:31;;;;;;;;;;;5.90;99.90;;;;;;5062890;28;19977;-77
2023/12/31 05:38:57;;;;;;;;;;;5.80;99.90;;;;;;5066430;28;20112;-77
2023/12/31 05:41:24;;;;;;;;;;;5.90;99.90;;;;;;5065476;28;25062;-77
2023/12/31 05:43:51;;;;;;;;;;;5.80;99.90;;;;;;5069131;28;19982;-77
2023/12/31 05:46:18;;;;;;;;;;;5.90;99.90;;;;;;5063858;28;20150;-79
2023/12/31 05:48:44;;;;;;;;;;;5.90;99.90;;;;;;5066294;28;25075;-76
2023/12/31 05:51:11;;;;;;;;;;;5.80;99.90;;;;;;5065588;28;19990;-77
2023/12/31 05:53:39;;;;;;;;;;;5.90;99.90;;;;;;5067697;28;19931;-78
2023/12/31 05:56:05;;;;;;;;;;;5.90;99.90;;;;;;5064540;28;19943;-78
2023/12/31 05:58:32;;;;;;;;;;;5.80;99.90;;;;;;5070392;28;20281;-77
2023/12/31 06:01:00;;;;;;;;;;;5.80;99.90;;;;;;5062319;28;19932;-77
2023/12/31 06:03:26;;;;;;;;;;;5.80;99.90;;;;;;5057015;28;20054;-79
2023/12/31 06:05:53;;;;;;;;;;;5.80;99.90;;;;;;5064986;28;19924;-76
2023/12/31 06:08:19;;;;;;;;;;;5.80;99.90;;;;;;5067667;28;20643;-76
2023/12/31 06:10:47;;;;;;;;;;;5.80;99.90;;;;;;5064630;28;19932;-77
2023/12/31 06:13:13;;;;;;;;;;;5.80;99.90;;;;;;5063871;28;19928;-77
2023/12/31 06:15:40;;;;;;;;;;;5.80;99.90;;;;;;5063169;28;19924;-79
2023/12/31 06:18:07;;;;;;;;;;;5.80;99.90;;;;;;5064204;28;19924;-77
2023/12/31 06:20:33;;;;;;;;;;;5.80;99.90;;;;;;5064443;28;19931;-77
2023/12/31 06:23:00;;;;;;;;;;;5.80;99.90;;;;;;5061534;28;20287;-77
2023/12/31 06:25:26;;;;;;;;;;;5.80;99.90;;;;;;5064757;28;19924;-79
2023/12/31 06:27:56;;;;;;;;;;;5.80;99.90;;;;;;5067247;28;19928;-79
2023/12/31 06:30:23;;;;;;;;;;;5.80;99.90;;;;;;5058059;28;19942;-77
2023/12/31 06:32:50;;;;;;;;;;;5.80;99.90;;;;;;5060820;28;19926;-77
2023/12/31 06:35:16;;;;;;;;;;;5.80;99.90;;;;;;5063482;28;19935;-77
2023/12/31 06:37:43;;;;;;;;;;;5.80;99.90;;;;;;5062672;28;19924;-77
2023/12/31 06:40:10;;;;;;;;;;;5.80;99.90;;;;;;5064260;28;19932;-77
2023/12/31 06:42:37;;;;;;;;;;;5.80;99.90;;;;;;5066776;28;19928;-77
2023/12/31 06:45:05;;;;;;;;;;;5.80;99.90;;;;;;5065216;28;20444;-76
2023/12/31 06:47:32;;;;;;;;;;;5.80;99.90;;;;;;5062118;28;20096;-75
2023/12/31 06:49:58;;;;;;;;;;;5.80;99.90;;;;;;5066764;28;20687;-76
2023/12/31 06:52:25;;;;;;;;;;;5.80;99.90;;;;;;5067152;28;19921;-77
2023/12/31 06:54:51;;;;;;;;;;;5.80;99.90;;;;;;5055144;28;19924;-77
2023/12/31 06:57:18;;;;;;;;;;;5.80;99.90;;;;;;5062100;28;19928;-78
2023/12/31 06:59:45;;;;;;;;;;;5.80;99.90;;;;;;5071524;28;19930;-78
2023/12/31 07:02:13;;;;;;;;;;;5.80;99.90;;;;;;5058917;28;20345;-75
2023/12/31 07:04:40;;;;;;;;;;;5.80;99.90;;;;;;5067569;28;19924;-77
2023/12/31 07:07:06;;;;;;;;;;;5.80;99.90;;;;;;5065321;28;19974;-76
2023/12/31 07:09:33;;;;;;;;;;;5.80;99.90;;;;;;5065320;28;19963;-77
2023/12/31 07:12:00;;;;;;;;;;;5.80;99.90;;;;;;5069782;28;19931;-76
2023/12/31 07:14:27;;;;;;;;;;;5.80;99.90;;;;;;5066911;28;19924;-77
2023/12/31 07:16:53;;;;;;;;;;;5.80;99.90;;;;;;5060531;28;19974;-77
2023/12/31 07:19:21;;;;;;;;;;;5.80;99.90;;;;;;5061678;28;19924;-76
2023/12/31 07:21:48;;;;;;;;;;;5.80;99.90;;;;;;5063254;28;19927;-76
2023/12/31 07:24:15;;;;;;;;;;;5.80;99.90;;;;;;5062793;28;19927;-77
2023/12/31 07:26:41;;;;;;;;;;;5.80;99.90;;;;;;5068178;28;19928;-79
2023/12/31 07:29:08;;;;;;;;;;;5.80;99.90;;;;;;5063640;28;19950;-75
2023/12/31 07:31:36;;;;;;;;;;;5.80;99.90;;;;;;5064282;28;19951;-77
2023/12/31 07:34:03;;;;;;;;;;;5.80;99.90;;;;;;5061153;28;19928;-77
2023/12/31 07:36:31;;;;;;;;;;;5.80;99.90;;;;;;5068035;28;20739;-76
2023/12/31 07:38:57;;;;;;;;;;;5.80;99.90;;;;;;5063444;28;20437;-77
2023/12/31 07:41:24;;;;;;;;;;;5.80;99.90;;;;;;5064537;28;19955;-78
2023/12/31 07:43:50;;;;;;;;;;;5.80;99.90;;;;;;5067774;28;19961;-77
2023/12/31 07:46:17;;;;;;;;;;;5.80;99.90;;;;;;5061443;28;24079;-76
2023/12/31 07:48:43;;;;;;;;;;;5.80;99.90;;;;;;5061701;28;19944;-78
2023/12/31 07:51:10;;;;;;;;;;;5.80;99.90;;;;;;5061324;28;20660;-76
2023/12/31 07:53:38;;;;;;;;;;;5.80;99.90;;;;;;5061652;28;19943;-76
2023/12/31 07:56:05;;;;;;;;;;;5.80;99.90;;;;;;5060428;28;19981;-76
2023/12/31 07:58:31;;;;;;;;;;;5.80;99.90;;;;;;5064769;28;20305;-76
2023/12/31 08:00:58;;;;;;;;;;;5.80;99.90;;;;;;5065022;28;19939;-76
2023/12/31 08:03:26;;;;;;;;;;;5.80;99.90;;;;;;5066222;28;19933;-76
2023/12/31 08:05:53;;;;;;;;;;;5.80;99.90;;;;;;5065023;28;19982;-76
2023/12/31 08:08:20;;;;;;;;;;;5.80;99.90;;;;;;5060968;28;19932;-77
2023/12/31 08:10:47;;;;;;;;;;;5.80;99.90;;;;;;5065498;28;19928;-77
2023/12/31 08:13:14;;;;;;;;;;;5.80;99.90;;;;;;5067472;28;19951;-76
2023/12/31 08:15:40;;;;;;;;;;;5.80;99.90;;;;;;5061408;28;19928;-76
2023/12/31 08:18:07;;;;;;;;;;;5.80;99.90;;;;;;5060740;28;19936;-77
2023/12/31 08:20:34;;;;;;;;;;;5.80;99.90;;;;;;5062082;28;19936;-75
2023/12/31 08:23:01;;;;;;;;;;;5.80;99.90;;;;;;5060891;28;19932;-76
2023/12/31 08:25:27;;;;;;;;;;;5.80;99.90;;;;;;5063370;28;20501;-78
2023/12/31 08:27:55;;;;;;;;;;;5.80;99.90;;;;;;5067695;28;20385;-76
2023/12/31 08:30:22;;;;;;;;;;;5.80;99.90;;;;;;5062045;28;20692;-76
2023/12/31 08:32:48;;;;;;;;;;;5.80;99.90;;;;;;5063961;28;20394;-77
2023/12/31 08:35:15;;;;;;;;;;;5.80;99.90;;;;;;5058983;28;20015;-77
2023/12/31 08:37:41;;;;;;;;;;;5.80;99.90;;;;;;5063234;28;19940;-76
2023/12/31 08:40:09;;;;;;;;;;;5.80;99.90;;;;;;5062650;28;19932;-75
2023/12/31 08:42:36;;;;;;;;;;;5.80;99.90;;;;;;5061834;28;20402;-77
2023/12/31 08:45:06;;;;;;;;;;;5.80;99.90;;;;;;5064063;28;19933;-75
2023/12/31 08:47:33;;;;;;;;;;;5.80;99.90;;;;;;5062182;28;19932;-77
2023/12/31 08:50:07;;;;;;;;;;;5.80;99.90;;;;;;5065322;28;20026;-76
2023/12/31 08:52:34;;;;;;;;;;;5.80;99.90;;;;;;5064112;28;19929;-77
2023/12/31 08:55:00;;;;;;;;;;;5.80;99.90;;;;;;5057011;28;19939;-75
2023/12/31 08:57:27;;;;;;;;;;;5.80;99.90;;;;;;5063154;28;19928;-76
2023/12/31 08:59:53;;;;;;;;;;;5.80;99.90;;;;;;5069195;28;20360;-77
2023/12/31 09:02:21;;;;;;;;;;;5.80;99.90;;;;;;5064501;28;19955;-77
2023/12/31 09:04:48;;;;;;;;;;;5.80;99.90;;;;;;5067548;28;19935;-78
2023/12/31 09:07:14;;;;;;;;;;;5.80;99.90;;;;;;5065579;28;19933;-76
2023/12/31 09:09:42;;;;;;;;;;;5.80;99.90;;;;;;5066070;28;19932;-75
2023/12/31 09:12:08;;;;;;;;;;;5.80;99.90;;;;;;5067556;28;20366;-77
2023/12/31 09:14:35;;;;;;;;;;;5.80;99.90;;;;;;5068330;28;19951;-75
2023/12/31 09:17:01;;;;;;;;;;;5.90;99.90;;;;;;5066077;28;20349;-77
2023/12/31 09:19:30;;;;;;;;;;;5.80;99.90;;;;;;5063475;28;19929;-75
2023/12/31 09:21:56;;;;;;;;;;;5.90;99.90;;;;;;5067497;28;19929;-77
2023/12/31 09:24:23;;;;;;;;;;;5.90;99.90;;;;;;5064375;28;19948;-76
2023/12/31 09:26:49;;;;;;;;;;;5.90;99.90;;;;;;5063803;28;19928;-75
2023/12/31 09:29:17;;;;;;;;;;;5.90;99.90;;;;;;5064573;28;20431;-76
2023/12/31 09:31:43;;;;;;;;;;;5.90;99.90;;;;;;5065549;28;20625;-77
2023/12/31 09:34:10;;;;;;;;;;;5.90;99.90;;;;;;5041709;28;19940;-76
2023/12/31 09:36:38;;;;;;;;;;;5.90;99.90;;;;;;5039616;28;19928;-77
2023/12/31 09:39:04;;;;;;;;;;;5.90;99.90;;;;;;5038473;28;20421;-78
2023/12/31 09:41:32;;;;;;;;;;;5.90;99.90;;;;;;5042453;28;19929;-76
2023/12/31 09:43:59;;;;;;;;;;;6.00;99.90;;;;;;5047709;28;19928;-76
2023/12/31 09:46:30;;;;;;;;;;;6.00;99.90;;;;;;5046282;28;21057;-76
2023/12/31 09:48:58;;;;;;;;;;;6.00;99.90;;;;;;5044720;28;19935;-76
2023/12/31 09:51:25;;;;;;;;;;;6.00;99.90;;;;;;5044882;28;20295;-77
2023/12/31 09:53:54;;;;;;;;;;;6.00;99.90;;;;;;5047160;28;21115;-77
2023/12/31 09:56:22;;;;;;;;;;;6.00;99.90;;;;;;5043257;28;19929;-77
2023/12/31 09:58:50;;;;;;;;;;;6.00;99.90;;;;;;5045858;28;20026;-78
2023/12/31 10:01:17;;;;;;;;;;;6.00;99.90;;;;;;5046832;28;19924;-78
2023/12/31 10:03:45;;;;;;;;;;;6.00;99.90;;;;;;5048812;28;20348;-77
2023/12/31 10:06:11;;;;;;;;;;;6.00;99.90;;;;;;5042594;28;20000;-77
2023/12/31 10:08:38;;;;;;;;;;;6.10;99.90;;;;;;5044708;28;19936;-78
2023/12/31 10:11:07;;;;;;;;;;;6.10;99.90;;;;;;5044490;28;19928;-79
2023/12/31 10:13:33;;;;;;;;;;;6.10;99.90;;;;;;5044485;28;19963;-77
2023/12/31 10:16:00;;;;;;;;;;;6.10;99.90;;;;;;5048061;28;19932;-77
2023/12/31 10:18:26;;;;;;;;;;;6.10;99.90;;;;;;5045100;28;20112;-77
2023/12/31 10:20:53;;;;;;;;;;;6.20;99.90;;;;;;5042919;28;25130;-77
2023/12/31 10:23:20;;;;;;;;;;;6.20;99.90;;;;;;5045669;28;19991;-77
2023/12/31 10:25:46;;;;;;;;;;;6.20;99.90;;;;;;5048371;28;19960;-77
2023/12/31 10:28:14;;;;;;;;;;;6.20;99.90;;;;;;5043695;28;20009;-77
2023/12/31 10:30:41;;;;;;;;;;;6.20;99.90;;;;;;5043882;28;20010;-78
2023/12/31 10:33:12;;;;;;;;;;;6.20;99.90;;;;;;5053263;28;25078;-77
2023/12/31 10:35:39;;;;;;;;;;;6.30;99.90;;;;;;5068820;28;20499;-76
2023/12/31 10:38:06;;;;;;;;;;;6.30;99.90;;;;;;5063590;28;20476;-77
2023/12/31 10:40:34;;;;;;;;;;;6.30;99.90;;;;;;5064330;28;19935;-78
2023/12/31 10:43:02;;;;;;;;;;;6.30;99.90;;;;;;5064226;28;25109;-78
2023/12/31 10:45:32;;;;;;;;;;;6.30;99.90;;;;;;5062242;28;20001;-77
2023/12/31 10:48:01;;;;;;;;;;;6.30;99.90;;;;;;5063392;28;25071;-77
2023/12/31 10:50:28;;;;;;;;;;;6.40;99.90;;;;;;5064249;28;20442;-78
2023/12/31 10:52:57;;;;;;;;;;;6.40;99.90;;;;;;5060826;28;25071;-77
2023/12/31 10:55:23;;;;;;;;;;;6.40;99.90;;;;;;5063175;28;19989;-77
2023/12/31 10:57:51;;;;;;;;;;;6.40;99.90;;;;;;5070556;28;25064;-77
2023/12/31 11:00:19;;;;;;;;;;;6.40;99.90;;;;;;5064594;28;19979;-77
2023/12/31 11:02:47;;;;;;;;;;;6.40;99.90;;;;;;5057189;28;20033;-78
2023/12/31 11:05:14;;;;;;;;;;;6.50;99.90;;;;;;5059361;28;20106;-78
2023/12/31 11:07:41;;;;;;;;;;;6.50;99.90;;;;;;5062564;28;20118;-77
2023/12/31 11:10:08;;;;;;;;;;;6.50;99.90;;;;;;5064739;28;20821;-78
2023/12/31 11:12:35;;;;;;;;;;;6.50;99.90;;;;;;5062497;28;25095;-77
2023/12/31 11:15:04;;;;;;;;;;;6.50;99.90;;;;;;5064940;28;20236;-77
2023/12/31 11:17:38;;;;;;;;;;;6.50;99.90;;;;;;5064697;28;25101;-77
2023/12/31 11:20:20;;;;;;;;;;;6.50;99.90;;;;;;5061707;28;20632;-77
2023/12/31 11:22:51;;;;;;;;;;;6.50;99.90;;;;;;5064133;28;25083;-77
2023/12/31 11:25:20;;;;;;;;;;;6.50;99.90;;;;;;5063906;28;19982;-77
2023/12/31 11:27:47;;;;;;;;;;;6.50;99.90;;;;;;5062380;28;20862;-77
2023/12/31 11:30:14;;;;;;;;;;;6.50;99.90;;;;;;5064557;28;20108;-77
2023/12/31 11:32:41;;;;;;;;;;;6.60;99.90;;;;;;5065761;28;19924;-77
2023/12/31 11:35:08;;;;;;;;;;;6.60;99.90;;;;;;5063987;28;20582;-77
2023/12/31 11:37:40;;;;;;;;;;;6.60;99.90;;;;;;5066906;28;19974;-77
2023/12/31 11:40:07;;;;;;;;;;;6.60;99.90;;;;;;5058676;28;19971;-77
2023/12/31 11:42:34;;;;;;;;;;;6.60;99.90;;;;;;5061675;28;19962;-77
2023/12/31 11:45:00;;;;;;;;;;;6.60;99.90;;;;;;5062307;28;20090;-77
2023/12/31 11:47:29;;;;;;;;;;;6.60;99.90;;;;;;5060969;28;25053;-77
2023/12/31 11:50:17;;;;;;;;;;;6.70;99.90;;;;;;5055794;28;19928;-77
2023/12/31 11:52:46;;;;;;;;;;;6.70;99.90;;;;;;5058850;28;19928;-78
2023/12/31 11:55:13;;;;;;;;;;;6.70;99.90;;;;;;5063621;28;19986;-77
2023/12/31 11:57:40;;;;;;;;;;;6.70;99.90;;;;;;5067394;28;19970;-78
2023/12/31 12:00:08;;;;;;;;;;;6.70;99.90;;;;;;5065785;28;20119;-76
2023/12/31 12:02:34;;;;;;;;;;;6.70;99.90;;;;;;5062614;28;20027;-78
2023/12/31 12:05:02;;;;;;;;;;;6.70;99.90;;;;;;5062884;28;20114;-76
2023/12/31 12:07:29;;;;;;;;;;;6.70;99.90;;;;;;5055600;28;19924;-77
2023/12/31 12:09:57;;;;;;;;;;;6.80;99.90;;;;;;5064575;28;19954;-77
2023/12/31 12:12:24;;;;;;;;;;;6.70;99.90;;;;;;5067232;28;20033;-77
2023/12/31 12:14:50;;;;;;;;;;;6.80;99.90;;;;;;5064602;28;19974;-76
2023/12/31 12:17:17;;;;;;;;;;;6.80;99.90;;;;;;5064148;28;20176;-78
2023/12/31 12:19:44;;;;;;;;;;;6.80;99.90;;;;;;5061536;28;19931;-78
2023/12/31 12:22:11;;;;;;;;;;;6.70;99.90;;;;;;5063810;28;19991;-76
2023/12/31 12:24:37;;;;;;;;;;;6.80;99.90;;;;;;5061025;28;19929;-78
2023/12/31 12:27:06;;;;;;;;;;;6.80;99.90;;;;;;5062189;28;19924;-78
2023/12/31 12:29:33;;;;;;;;;;;6.80;99.90;;;;;;5067584;28;19924;-77
2023/12/31 12:32:02;;;;;;;;;;;6.80;99.90;;;;;;5063619;28;19931;-79
2023/12/31 12:34:29;;;;;;;;;;;6.90;99.90;;;;;;5068102;28;19966;-77
2023/12/31 12:36:58;;;;;;;;;;;6.90;99.90;;;;;;5058019;28;20116;-77
2023/12/31 12:39:24;;;;;;;;;;;6.90;99.90;;;;;;5062969;28;19953;-77
2023/12/31 12:41:52;;;;;;;;;;;6.90;99.90;;;;;;5062951;28;20317;-77
2023/12/31 12:44:20;;;;;;;;;;;6.90;99.90;;;;;;5064446;28;19963;-77
2023/12/31 12:46:48;;;;;;;;;;;6.90;99.90;;;;;;5064042;28;19978;-77
2023/12/31 12:49:14;;;;;;;;;;;6.90;99.90;;;;;;5064067;28;25188;-78
2023/12/31 12:51:42;;;;;;;;;;;6.90;99.90;;;;;;5065248;28;20007;-77
2023/12/31 12:54:08;;;;;;;;;;;6.90;99.90;;;;;;5062798;28;25059;-77
2023/12/31 12:56:36;;;;;;;;;;;6.90;99.90;;;;;;5064007;28;20055;-76
2023/12/31 12:59:03;;;;;;;;;;;7.00;99.90;;;;;;5062933;28;20121;-77
2023/12/31 13:01:31;;;;;;;;;;;7.00;99.90;;;;;;5062983;28;25086;-77
2023/12/31 13:03:58;;;;;;;;;;;7.00;99.90;;;;;;5065261;28;19986;-77
2023/12/31 13:06:24;;;;;;;;;;;7.00;99.90;;;;;;5065050;28;20145;-76
2023/12/31 13:08:51;;;;;;;;;;;7.00;99.90;;;;;;5062253;28;20120;-77
2023/12/31 13:11:17;;;;;;;;;;;7.00;99.90;;;;;;5064450;28;20004;-77
2023/12/31 13:13:45;;;;;;;;;;;7.00;99.90;;;;;;5065954;28;20369;-77
2023/12/31 13:16:12;;;;;;;;;;;7.00;99.90;;;;;;5063997;28;25151;-77
2023/12/31 13:18:39;;;;;;;;;;;7.00;99.90;;;;;;5063797;28;19983;-77
2023/12/31 13:21:06;;;;;;;;;;;7.00;99.90;;;;;;5065268;28;20126;-77
2023/12/31 13:23:33;;;;;;;;;;;7.00;99.90;;;;;;5065127;28;20124;-77
2023/12/31 13:25:59;;;;;;;;;;;7.10;99.90;;;;;;5064443;28;20123;-77
2023/12/31 13:28:26;;;;;;;;;;;7.10;99.90;;;;;;5066480;28;20071;-77
2023/12/31 13:30:52;;;;;;;;;;;7.00;99.90;;;;;;5066164;28;19930;-77
2023/12/31 13:33:20;;;;;;;;;;;7.10;99.90;;;;;;5066376;28;25083;-78
2023/12/31 13:35:48;;;;;;;;;;;7.10;99.90;;;;;;5065915;28;19983;-78
2023/12/31 13:38:18;;;;;;;;;;;7.00;99.90;;;;;;5064014;28;20118;-78
2023/12/31 13:40:45;;;;;;;;;;;7.10;99.90;;;;;;5064826;28;20688;-78
2023/12/31 13:43:11;;;;;;;;;;;7.10;99.90;;;;;;5066451;28;19993;-77
2023/12/31 13:45:38;;;;;;;;;;;7.10;99.90;;;;;;5065704;28;25129;-77
2023/12/31 13:48:05;;;;;;;;;;;7.10;99.90;;;;;;5065196;28;20062;-77
2023/12/31 13:50:32;;;;;;;;;;;7.10;99.90;;;;;;5065917;28;25070;-77
2023/12/31 13:52:59;;;;;;;;;;;7.00;99.90;;;;;;5064421;28;19981;-78
2023/12/31 13:55:26;;;;;;;;;;;7.10;99.90;;;;;;5064765;28;25079;-75
2023/12/31 13:57:52;;;;;;;;;;;7.10;99.90;;;;;;5065009;28;19985;-77
2023/12/31 14:00:19;;;;;;;;;;;7.10;99.90;;;;;;5063318;28;25080;-77
2023/12/31 14:02:47;;;;;;;;;;;7.10;99.90;;;;;;5062782;28;20005;-77
2023/12/31 14:05:14;;;;;;;;;;;7.10;99.90;;;;;;5065594;28;20206;-77
2023/12/31 14:07:41;;;;;;;;;;;7.10;99.90;;;;;;5050768;28;25073;-76
2023/12/31 14:10:09;;;;;;;;;;;7.20;99.90;;;;;;5041966;28;20018;-77
2023/12/31 14:12:36;;;;;;;;;;;7.20;99.90;;;;;;5043997;28;20165;-76
2023/12/31 14:15:04;;;;;;;;;;;7.10;99.90;;;;;;5043555;28;19971;-77
2023/12/31 14:17:31;;;;;;;;;;;7.10;99.90;;;;;;5043614;28;20169;-76
2023/12/31 14:19:57;;;;;;;;;;;7.20;99.90;;;;;;5045270;28;20496;-77
2023/12/31 14:22:24;;;;;;;;;;;7.20;99.90;;;;;;5045106;28;25070;-77
2023/12/31 14:24:50;;;;;;;;;;;7.20;99.90;;;;;;5042522;28;19987;-77
2023/12/31 14:27:18;;;;;;;;;;;7.10;99.90;;;;;;5051778;28;20159;-76
2023/12/31 14:29:45;;;;;;;;;;;7.10;99.90;;;;;;5067336;28;20239;-77